• Join FlightAware (Why Join?)
  • Login
  • US Flag 
04:23AM EDT


 

Airport Tracker/Info


-or-


 

Live Flight TrackerFlight Track Log ✈ AWE3202 ✈ 03-Oct-2013 ✈ KJAX - KDCA

Flight Track Log - Related Links

Times and Time Zones

All times are in EDT time to prevent confusion due to time zone crossing. See the AWE3202 flight status page for this flight to view local times or setup timezone preferences in your user account.

Time Position Orientation Groundspeed Altitude Reporting Facility
EDT Latitude Longitude Course Direction KTS MPH feet Rate Location/Type
06:34PM 30.5069 -81.6703 44° Northeast 148 170 900  Level Jacksonville Center
06:35PM 30.5358 -81.6239 54° Northeast 159 183 3,100 2,400 Climbing Jacksonville Center
06:36PM 30.7829 -81.5431 90° East  Level Estimated
06:36PM 30.5917 -81.5750 37° Northeast 224 258 5,800  Level Jacksonville Center
06:37PM 30.8792 -81.4946 19° North  Level Estimated
06:37PM 30.6731 -81.5739 North 240 276 9,400  Level Jacksonville Center
06:38PM 30.9545 -81.4096 44° Northeast  Level FlightAware Approximate
06:38PM 30.7589 -81.5822 355° North 270 311 11,700  Level Jacksonville Center
06:39PM 31.0298 -81.3244 44° Northeast  Level FlightAware Approximate
06:39PM 30.8486 -81.5931 354° North 301 346 14,500  Level Jacksonville Center
06:40PM 30.9447 -81.5967 358° North 327 376 16,700 2,220 Climbing Jacksonville Center
06:41PM 31.0383 -81.5639 17° North 332 382 19,000 2,040 Climbing Jacksonville Center
06:42PM 31.1403 -81.5333 14° North 366 421 20,800 1,860 Climbing Jacksonville Center
06:43PM 31.2444 -81.4978 16° North 383 441 22,800 1,800 Climbing Jacksonville Center
06:44PM 31.3525 -81.4644 15° North 390 449 24,500 1,620 Climbing Jacksonville Center
06:45PM 31.4525 -81.4264 18° North 408 470 26,100 1,620 Climbing Jacksonville Center
06:46PM 31.5750 -81.3856 16° North 416 479 27,800 1,440 Climbing Jacksonville Center
06:47PM 31.6811 -81.3522 15° North 416 479 29,000 1,740 Climbing Jacksonville Center
06:48PM 31.8058 -81.3108 16° North 421 484 31,300 2,100 Climbing Jacksonville Center
06:49PM 31.9203 -81.2747 15° North 414 476 33,200 1,620 Climbing Jacksonville Center
06:50PM 32.0242 -81.2311 20° North 399 459 34,600 900 Climbing Jacksonville Center
06:51PM 32.1214 -81.1583 32° Northeast 401 461 35,000 180 Climbing Jacksonville Center
06:52PM 32.2244 -81.0728 35° Northeast 443 510 35,000  Level Jacksonville Center
06:53PM 32.3339 -80.9822 35° Northeast 470 541 35,000  Level Jacksonville Center
06:54PM 32.4386 -80.8864 38° Northeast 470 541 35,000  Level Jacksonville Center
06:55PM 32.5458 -80.7953 36° Northeast 475 547 35,000  Level Jacksonville Center
06:56PM 32.6528 -80.7017 36° Northeast 475 547 35,000  Level Jacksonville Center
06:57PM 32.7617 -80.6075 36° Northeast 475 547 35,000  Level Jacksonville Center
06:58PM 32.8481 -80.5311 37° Northeast 475 547 35,000  Level Jacksonville Center
06:59PM 32.9650 -80.4317 35° Northeast 475 547 35,000  Level Jacksonville Center
07:00PM 33.0861 -80.3217 37° Northeast 492 566 35,000  Level Jacksonville Center
07:01PM 33.1989 -80.2242 36° Northeast 488 562 35,000  Level Jacksonville Center
07:02PM 33.3011 -80.1339 36° Northeast 494 568 35,000  Level Jacksonville Center
07:03PM 33.4078 -80.0386 37° Northeast 489 563 35,000  Level Jacksonville Center
07:04PM 33.5181 -79.9406 37° Northeast 489 563 35,000  Level Jacksonville Center
07:05PM 33.6244 -79.8447 37° Northeast 489 563 35,000  Level Jacksonville Center
07:06PM 33.7325 -79.7436 38° Northeast 489 563 35,000  Level Jacksonville Center
07:07PM 33.8406 -79.6472 37° Northeast 489 563 35,000  Level Jacksonville Center
07:08PM 34.0186 -79.4878 37° Northeast 467 537 35,000  Level Washington Center
07:09PM 34.1303 -79.3875 37° Northeast 474 545 35,000  Level Washington Center
07:10PM 34.2528 -79.2753 37° Northeast 496 571 35,000  Level Washington Center
07:11PM 34.3717 -79.2050 26° Northeast 502 578 35,000  Level Washington Center
07:12PM 34.4928 -79.1322 26° Northeast 477 549 35,000 -360 Level Washington Center
07:13PM 34.6117 -79.0642 25° Northeast 472 543 34,300 -900 Descending Washington Center
07:14PM 34.7306 -78.9936 26° Northeast 472 543 33,300 -660 Descending Washington Center
07:15PM 34.8472 -78.9275 25° Northeast 467 537 33,000 -180 Descending Washington Center
07:16PM 34.9639 -78.8589 26° Northeast 467 537 33,000  Level Washington Center
07:17PM 35.0825 -78.7900 25° Northeast 462 532 33,000  Level Washington Center
07:18PM 35.1969 -78.7233 25° Northeast 462 532 33,000  Level Washington Center
07:19PM 35.3136 -78.6542 26° Northeast 462 532 33,000  Level Washington Center
07:20PM 35.4217 -78.5894 26° Northeast 462 532 33,000  Level Washington Center
07:21PM 35.5528 -78.5128 25° Northeast 467 537 33,000  Level Washington Center
07:22PM 35.6650 -78.4453 26° Northeast 472 543 33,000  Level Washington Center
07:23PM 35.7814 -78.3778 25° Northeast 470 541 33,000  Level Washington Center
07:24PM 35.8978 -78.3075 26° Northeast 470 541 33,000 -300 Level Washington Center
07:25PM 36.0164 -78.2369 26° Northeast 465 535 32,400 -1,200 Descending Washington Center
07:26PM 36.1325 -78.1689 25° Northeast 465 535 30,600 -1,740 Descending Washington Center
07:27PM 36.2489 -78.0956 27° Northeast 465 535 28,900 -1,800 Descending Washington Center
07:28PM 36.3672 -78.0219 27° Northeast 465 535 27,100 -960 Descending Washington Center
07:29PM 36.4961 -77.9458 25° Northeast 465 535 27,000 -300 Descending Washington Center
07:30PM 36.6164 -77.8744 25° Northeast 465 535 26,500 -900 Descending Washington Center
07:31PM 36.7342 -77.8183 21° North 460 529 25,200 -1,320 Descending Washington Center
07:32PM 36.8519 -77.7722 17° North 452 520 24,000 -1,320 Descending Washington Center
07:33PM 36.9675 -77.7236 19° North 446 513 22,700 -1,020 Descending Washington Center
07:34PM 37.0811 -77.6747 19° North 441 507 22,000 -360 Descending Washington Center
07:35PM 37.1967 -77.6256 19° North 435 501 22,000  Level Washington Center
07:36PM 37.3078 -77.5789 18° North 429 494 22,000  Level Washington Center
07:37PM 37.4214 -77.5322 18° North 429 494 22,000 -300 Level Washington Center
07:38PM 37.5347 -77.4800 20° North 429 494 21,500 -1,200 Descending Washington Center
07:39PM 37.6461 -77.4356 18° North 424 488 19,700 -1,860 Descending Washington Center
07:40PM 37.7489 -77.3883 20° North 419 482 17,900 -1,740 Descending Washington Center
07:41PM 37.8539 -77.3461 18° North 403 464 16,300 -1,680 Descending Washington Center
07:42PM 37.9525 -77.3036 19° North 386 444 14,600 -1,680 Descending Washington Center
07:43PM 38.0386 -77.2686 18° North 370 426 13,000 -1,620 Descending Washington Center
07:44PM 38.1350 -77.2283 18° North 365 420 11,400 -1,560 Descending Washington Center
07:45PM 38.2272 -77.1856 20° North 365 420 10,000 -720 Descending Washington Center
07:46PM 38.3236 -77.1533 15° North 360 414 10,000  Level Washington Center
07:47PM 38.4197 -77.1314 10° North 355 409 10,000 -480 Level Washington Center
07:48PM 38.5014 -77.1144 North 328 377 9,100 -540 Descending Washington Center
07:49PM 38.5767 -77.0975 10° North 292 336 9,000 -60 Descending Washington Center
07:50PM 38.6478 -77.0803 11° North 268 308 9,000 -660 Level Washington Center
07:51PM 38.7147 -77.0683 North 253 291 7,700 -1,320 Descending Washington Center
07:52PM 38.7811 -77.0831 350° North 240 276 6,500 -900 Descending Washington Center
07:53PM 38.8369 -77.1267 329° Northwest 226 260 6,000 -480 Descending Washington Center
07:55PM 38.8500 -77.0333 North  Level FlightAware Approximate
07:56PM 38.9500 -77.2500 North 206 237 5,000  Level Potomac TRACON
07:57PM 39.0000 -77.2500 360° North 205 236 4,600 -960 Descending Potomac TRACON
07:58PM 39.0000 -77.1833 90° East 195 224 3,100 -900 Descending Potomac TRACON
08:00PM 38.9333 -77.1167 142° Southeast 176 203 1,900 -780 Descending Potomac TRACON
08:01PM 38.9000 -77.0667 131° Southeast 156 180 900 -900 Descending Potomac TRACON
08:02PM 38.8667 -77.0333 142° Southeast 133 153 200 -720 Descending Potomac TRACON